Time;durP1;ratioP1;P1;durP2;ratioP2;P2;SDS_P1;SDS_P2;PMS_P1;PMS_P2;Temp;Humidity;BMP_temperature;BMP_pressure;BME280_temperature;BME280_humidity;BME280_pressure;Samples;Min_cycle;Max_cycle;Signal;HPM_P1;HPM_P2
2023/12/04 00:00:59;;;;;;;;;;;;;;;0.36;100.00;101247.00;5003645;28;19924;-62
2023/12/04 00:03:24;;;;;;;;;;;;;;;0.32;100.00;101247.28;5001348;28;19957;-62
2023/12/04 00:05:50;;;;;;;;;;;;;;;0.32;100.00;101249.88;5002585;28;19925;-62
2023/12/04 00:08:15;;;;;;;;;;;;;;;0.31;100.00;101246.44;5000069;28;20481;-62
2023/12/04 00:10:40;;;;;;;;;;;;;;;0.32;100.00;101240.28;5003219;28;19925;-61
2023/12/04 00:13:05;;;;;;;;;;;;;;;0.30;100.00;101242.16;5003143;28;19949;-62
2023/12/04 00:15:30;;;;;;;;;;;;;;;0.29;100.00;101237.88;5003820;28;20024;-62
2023/12/04 00:17:55;;;;;;;;;;;;;;;0.28;100.00;101236.16;5005513;28;19924;-62
2023/12/04 00:20:21;;;;;;;;;;;;;;;0.28;100.00;101230.94;5001909;28;19925;-62
2023/12/04 00:22:46;;;;;;;;;;;;;;;0.32;100.00;101221.16;5004038;28;20433;-62
2023/12/04 00:25:11;;;;;;;;;;;;;;;0.30;100.00;101229.94;5001538;28;20028;-62
2023/12/04 00:27:36;;;;;;;;;;;;;;;0.29;100.00;101228.25;5004454;28;20000;-62
2023/12/04 00:30:03;;;;;;;;;;;;;;;0.29;100.00;101220.41;5002253;28;19909;-62
2023/12/04 00:32:29;;;;;;;;;;;;;;;0.34;100.00;101224.50;5003728;28;20660;-62
2023/12/04 00:34:54;;;;;;;;;;;;;;;0.39;100.00;101220.66;4997890;28;19917;-62
2023/12/04 00:37:19;;;;;;;;;;;;;;;0.37;100.00;101226.94;4998938;28;19913;-62
2023/12/04 00:39:44;;;;;;;;;;;;;;;0.36;100.00;101217.41;4999536;28;20379;-62
2023/12/04 00:42:10;;;;;;;;;;;;;;;0.36;100.00;101214.81;5001702;28;19929;-62
2023/12/04 00:44:35;;;;;;;;;;;;;;;0.38;100.00;101199.88;5003102;28;19928;-62
2023/12/04 00:47:00;;;;;;;;;;;;;;;0.40;100.00;101208.44;5003484;28;20017;-62
2023/12/04 00:49:25;;;;;;;;;;;;;;;0.34;100.00;101211.44;5000097;28;19970;-62
2023/12/04 00:51:50;;;;;;;;;;;;;;;0.32;100.00;101208.09;5003146;28;19952;-62
2023/12/04 00:54:16;;;;;;;;;;;;;;;0.33;100.00;101202.78;5000362;28;20557;-62
2023/12/04 00:56:41;;;;;;;;;;;;;;;0.37;100.00;101192.97;5002894;28;19928;-62
2023/12/04 00:59:10;;;;;;;;;;;;;;;0.34;100.00;101198.38;5003643;28;19917;-62
2023/12/04 01:01:35;;;;;;;;;;;;;;;0.34;100.00;101190.56;5002011;28;19921;-62
2023/12/04 01:04:01;;;;;;;;;;;;;;;0.34;100.00;101191.38;5004487;28;19921;-62
2023/12/04 01:06:26;;;;;;;;;;;;;;;0.41;100.00;101182.22;5003955;28;19924;-62
2023/12/04 01:08:52;;;;;;;;;;;;;;;0.39;100.00;101181.47;4999037;28;19917;-62
2023/12/04 01:11:19;;;;;;;;;;;;;;;0.34;100.00;101182.72;5001132;28;19915;-62
2023/12/04 01:13:45;;;;;;;;;;;;;;;0.35;100.00;101166.09;5000617;28;20020;-62
2023/12/04 01:16:10;;;;;;;;;;;;;;;0.36;100.00;101180.84;5003561;28;20356;-62
2023/12/04 01:18:36;;;;;;;;;;;;;;;0.33;100.00;101181.88;4998914;28;20014;-62
2023/12/04 01:21:02;;;;;;;;;;;;;;;0.32;100.00;101179.38;5003612;28;19921;-62
2023/12/04 01:23:27;;;;;;;;;;;;;;;0.33;100.00;101181.03;5001109;28;19931;-62
2023/12/04 01:25:52;;;;;;;;;;;;;;;0.29;100.00;101176.00;5001076;28;19917;-62
2023/12/04 01:28:17;;;;;;;;;;;;;;;0.29;100.00;101172.56;4997599;28;19921;-62
2023/12/04 01:30:43;;;;;;;;;;;;;;;0.30;100.00;101162.00;4996802;28;19924;-62
2023/12/04 01:33:08;;;;;;;;;;;;;;;0.32;100.00;101159.31;5002931;28;19963;-62
2023/12/04 01:35:34;;;;;;;;;;;;;;;0.32;100.00;101158.47;5001001;28;19921;-62
2023/12/04 01:37:59;;;;;;;;;;;;;;;0.32;100.00;101161.09;4999290;28;19924;-61
2023/12/04 01:40:24;;;;;;;;;;;;;;;0.34;100.00;101153.97;4997202;28;19967;-62
2023/12/04 01:42:49;;;;;;;;;;;;;;;0.37;100.00;101157.22;5001204;28;19925;-62
2023/12/04 01:45:15;;;;;;;;;;;;;;;0.36;100.00;101159.94;5000919;28;19967;-62
2023/12/04 01:47:40;;;;;;;;;;;;;;;0.37;100.00;101146.78;4999454;28;20597;-62
2023/12/04 01:50:06;;;;;;;;;;;;;;;0.36;100.00;101155.56;5002753;28;19936;-62
2023/12/04 01:52:32;;;;;;;;;;;;;;;0.37;100.00;101138.13;5003455;28;19929;-61
2023/12/04 01:54:57;;;;;;;;;;;;;;;0.41;100.00;101143.03;5001582;28;20373;-62
2023/12/04 01:57:22;;;;;;;;;;;;;;;0.41;100.00;101140.44;5003091;28;19948;-61
2023/12/04 01:59:48;;;;;;;;;;;;;;;0.39;100.00;101146.69;5002710;28;20004;-60
2023/12/04 02:02:13;;;;;;;;;;;;;;;0.38;100.00;101137.19;4999862;28;19925;-60
2023/12/04 02:04:39;;;;;;;;;;;;;;;0.43;100.00;101127.25;5002982;28;19921;-60
2023/12/04 02:07:04;;;;;;;;;;;;;;;0.41;100.00;101136.97;5001853;28;19921;-60
2023/12/04 02:09:30;;;;;;;;;;;;;;;0.38;100.00;101126.72;5003050;28;20004;-60
2023/12/04 02:11:55;;;;;;;;;;;;;;;0.38;100.00;101127.56;5001778;28;19925;-61
2023/12/04 02:14:20;;;;;;;;;;;;;;;0.47;100.00;101120.91;5003613;28;20658;-60
2023/12/04 02:16:45;;;;;;;;;;;;;;;0.41;100.00;101113.47;5003072;28;19917;-60
2023/12/04 02:19:14;;;;;;;;;;;;;;;0.44;100.00;101113.25;5001949;28;19917;-60
2023/12/04 02:21:39;;;;;;;;;;;;;;;0.47;100.00;101098.22;5003055;28;19913;-60
2023/12/04 02:24:05;;;;;;;;;;;;;;;0.46;100.00;101108.78;5001365;28;20268;-60
2023/12/04 02:26:34;;;;;;;;;;;;;;;0.43;100.00;101104.59;4992368;28;19913;-60
2023/12/04 02:29:01;;;;;;;;;;;;;;;0.47;100.00;101097.38;5000150;28;19925;-60
2023/12/04 02:31:27;;;;;;;;;;;;;;;0.45;100.00;101099.25;5003950;28;20035;-60
2023/12/04 02:33:55;;;;;;;;;;;;;;;0.43;100.00;101088.91;5002459;28;20011;-60
2023/12/04 02:36:22;;;;;;;;;;;;;;;0.46;100.00;101085.25;5002669;28;19925;-60
2023/12/04 02:38:48;;;;;;;;;;;;;;;0.44;100.00;101094.97;4998996;28;19980;-60
2023/12/04 02:41:13;;;;;;;;;;;;;;;0.42;100.00;101091.63;5000917;28;19917;-60
2023/12/04 02:43:38;;;;;;;;;;;;;;;0.47;100.00;101073.88;5002613;28;20438;-60
2023/12/04 02:46:04;;;;;;;;;;;;;;;0.46;100.00;101082.66;5003072;28;20440;-60
2023/12/04 02:48:29;;;;;;;;;;;;;;;0.46;100.00;101083.50;5001218;28;19964;-60
2023/12/04 02:50:54;;;;;;;;;;;;;;;0.44;100.00;101072.31;5003949;28;19921;-60
2023/12/04 02:53:19;;;;;;;;;;;;;;;0.45;100.00;101075.75;5001064;28;19913;-60
2023/12/04 02:55:44;;;;;;;;;;;;;;;0.47;100.00;101055.59;5000715;28;21505;-60
2023/12/04 02:58:10;;;;;;;;;;;;;;;0.48;100.00;101060.72;5000969;28;19919;-60
2023/12/04 03:00:35;;;;;;;;;;;;;;;0.44;100.00;101053.19;4999957;28;19918;-60
2023/12/04 03:03:00;;;;;;;;;;;;;;;0.43;100.00;101061.94;5003442;28;19924;-60
2023/12/04 03:05:25;;;;;;;;;;;;;;;0.46;100.00;101046.91;5001482;28;20003;-60
2023/12/04 03:07:50;;;;;;;;;;;;;;;0.50;100.00;101048.38;5002190;28;20005;-60
2023/12/04 03:10:16;;;;;;;;;;;;;;;0.48;100.00;101046.81;5000667;28;19917;-60
2023/12/04 03:12:41;;;;;;;;;;;;;;;0.48;100.00;101044.19;5001966;28;20379;-61
2023/12/04 03:15:06;;;;;;;;;;;;;;;0.51;100.00;101036.16;4997465;28;20297;-60
2023/12/04 03:17:31;;;;;;;;;;;;;;;0.53;100.00;101034.28;5002713;28;20514;-60
2023/12/04 03:19:57;;;;;;;;;;;;;;;0.57;100.00;101031.34;5004494;28;20022;-60
2023/12/04 03:22:22;;;;;;;;;;;;;;;0.56;100.00;101034.91;5005426;28;20389;-60
2023/12/04 03:24:47;;;;;;;;;;;;;;;0.57;100.00;101027.91;5000266;28;20330;-60
2023/12/04 03:27:12;;;;;;;;;;;;;;;0.59;100.00;101018.22;5003360;28;19920;-60
2023/12/04 03:29:38;;;;;;;;;;;;;;;0.58;100.00;101016.53;5003598;28;19928;-60
2023/12/04 03:32:03;;;;;;;;;;;;;;;0.63;100.00;101005.78;5002499;28;19913;-60
2023/12/04 03:34:28;;;;;;;;;;;;;;;0.59;100.00;101011.22;5003241;28;20029;-60
2023/12/04 03:36:53;;;;;;;;;;;;;;;0.58;100.00;101004.31;5005906;28;20377;-60
2023/12/04 03:39:18;;;;;;;;;;;;;;;0.55;100.00;100993.19;5005710;28;19918;-60
2023/12/04 03:41:44;;;;;;;;;;;;;;;0.56;100.00;101000.09;5001757;28;19960;-60
2023/12/04 03:44:10;;;;;;;;;;;;;;;0.54;100.00;100989.75;5005294;28;19917;-60
2023/12/04 03:46:35;;;;;;;;;;;;;;;0.54;100.00;100976.69;5005499;28;19928;-60
2023/12/04 03:49:00;;;;;;;;;;;;;;;0.57;100.00;100980.88;5004627;28;19928;-60
2023/12/04 03:51:25;;;;;;;;;;;;;;;0.55;100.00;100982.75;5004225;28;19917;-60
2023/12/04 03:53:50;;;;;;;;;;;;;;;0.57;100.00;100976.47;5004077;28;20063;-60
2023/12/04 03:56:16;;;;;;;;;;;;;;;0.56;100.00;100968.75;5002278;28;19917;-62
2023/12/04 03:58:41;;;;;;;;;;;;;;;0.58;100.00;100965.13;5003179;28;20337;-62
2023/12/04 04:01:06;;;;;;;;;;;;;;;0.58;100.00;100969.50;5002050;28;20810;-62
2023/12/04 04:03:31;;;;;;;;;;;;;;;0.59;100.00;100958.94;5004130;28;19925;-62
2023/12/04 04:05:57;;;;;;;;;;;;;;;0.62;100.00;100963.13;5001188;28;19917;-62
2023/12/04 04:08:22;;;;;;;;;;;;;;;0.57;100.00;100960.81;4999827;28;20596;-62
2023/12/04 04:10:47;;;;;;;;;;;;;;;0.55;100.00;100959.22;5001249;28;19917;-62
2023/12/04 04:13:12;;;;;;;;;;;;;;;0.53;100.00;100953.28;5002153;28;19917;-62
2023/12/04 04:15:37;;;;;;;;;;;;;;;0.50;99.99;100953.50;4996971;28;19909;-62
2023/12/04 04:18:03;;;;;;;;;;;;;;;0.58;100.00;100952.06;5003243;28;19913;-61
2023/12/04 04:20:28;;;;;;;;;;;;;;;0.55;99.70;100949.63;5000836;28;19917;-62
2023/12/04 04:22:53;;;;;;;;;;;;;;;0.55;99.96;100951.41;5001997;28;19925;-62
2023/12/04 04:25:21;;;;;;;;;;;;;;;0.50;99.71;100948.25;5002158;28;19917;-62
2023/12/04 04:27:46;;;;;;;;;;;;;;;0.50;99.87;100943.88;5000780;28;19983;-62
2023/12/04 04:30:13;;;;;;;;;;;;;;;0.47;99.90;100935.41;5001957;28;19935;-62
2023/12/04 04:32:38;;;;;;;;;;;;;;;0.46;99.91;100931.97;4997400;28;19913;-62
2023/12/04 04:35:04;;;;;;;;;;;;;;;0.47;99.87;100943.25;5000217;28;19921;-62
2023/12/04 04:37:29;;;;;;;;;;;;;;;0.45;99.69;100934.69;4999935;28;19924;-62
2023/12/04 04:39:54;;;;;;;;;;;;;;;0.47;99.78;100933.63;5002127;28;19924;-62
2023/12/04 04:42:19;;;;;;;;;;;;;;;0.43;99.66;100921.72;5002576;28;19952;-62
2023/12/04 04:44:44;;;;;;;;;;;;;;;0.40;99.56;100924.53;5001611;28;19946;-62
2023/12/04 04:47:10;;;;;;;;;;;;;;;0.43;99.47;100911.28;5001692;28;19921;-61
2023/12/04 04:49:35;;;;;;;;;;;;;;;0.42;99.69;100908.75;5003412;28;20003;-62
2023/12/04 04:52:00;;;;;;;;;;;;;;;0.39;99.75;100924.66;5002426;28;19914;-61
2023/12/04 04:54:25;;;;;;;;;;;;;;;0.39;99.70;100919.44;5002265;28;20635;-62
2023/12/04 04:56:51;;;;;;;;;;;;;;;0.43;99.71;100916.50;5000732;28;19914;-62
2023/12/04 04:59:16;;;;;;;;;;;;;;;0.42;99.68;100925.28;5002866;28;20469;-61
2023/12/04 05:01:41;;;;;;;;;;;;;;;0.43;99.67;100921.72;5001631;28;20646;-62
2023/12/04 05:04:06;;;;;;;;;;;;;;;0.43;99.66;100918.28;5003828;28;19913;-62
2023/12/04 05:06:32;;;;;;;;;;;;;;;0.43;99.52;100926.94;5002921;28;19936;-62
2023/12/04 05:08:57;;;;;;;;;;;;;;;0.40;99.86;100919.31;4998314;28;19964;-62
2023/12/04 05:11:23;;;;;;;;;;;;;;;0.38;99.76;100925.59;5003620;28;19924;-62
2023/12/04 05:13:49;;;;;;;;;;;;;;;0.40;99.50;100921.94;4999813;28;19940;-62
2023/12/04 05:16:14;;;;;;;;;;;;;;;0.41;99.81;100909.72;5001227;28;20322;-62
2023/12/04 05:18:39;;;;;;;;;;;;;;;0.41;99.36;100907.94;5003455;28;19947;-62
2023/12/04 05:21:08;;;;;;;;;;;;;;;0.44;99.74;100901.66;5003854;28;20309;-62
2023/12/04 05:23:33;;;;;;;;;;;;;;;0.44;99.65;100906.88;4985208;28;19924;-62
2023/12/04 05:25:59;;;;;;;;;;;;;;;0.42;99.68;100898.31;5003949;28;19921;-62
2023/12/04 05:28:24;;;;;;;;;;;;;;;0.43;99.34;100894.75;4985820;28;19921;-62
2023/12/04 05:30:49;;;;;;;;;;;;;;;0.49;99.34;100883.88;5002414;28;20575;-62
2023/12/04 05:33:14;;;;;;;;;;;;;;;0.44;99.42;100878.16;5004116;28;20275;-62
2023/12/04 05:35:40;;;;;;;;;;;;;;;0.49;99.30;100876.06;4999773;28;20330;-62
2023/12/04 05:38:05;;;;;;;;;;;;;;;0.46;99.26;100881.50;5003147;28;20486;-62
2023/12/04 05:40:30;;;;;;;;;;;;;;;0.47;99.42;100884.00;5001912;28;19920;-62
2023/12/04 05:42:55;;;;;;;;;;;;;;;0.47;99.26;100878.78;5002534;28;20012;-62
2023/12/04 05:45:20;;;;;;;;;;;;;;;0.47;98.97;100870.94;5001907;28;19955;-61
2023/12/04 05:47:45;;;;;;;;;;;;;;;0.48;99.19;100869.16;5003172;28;19932;-61
2023/12/04 05:50:11;;;;;;;;;;;;;;;0.51;99.08;100864.56;5001157;28;19964;-62
2023/12/04 05:52:36;;;;;;;;;;;;;;;0.51;98.97;100864.56;5003885;28;20437;-62
2023/12/04 05:55:02;;;;;;;;;;;;;;;0.46;98.75;100887.56;5001969;28;19960;-62
2023/12/04 05:57:27;;;;;;;;;;;;;;;0.53;98.99;100869.66;4996459;28;19962;-62
2023/12/04 05:59:52;;;;;;;;;;;;;;;0.47;98.54;100875.31;5001690;28;19917;-62
2023/12/04 06:02:18;;;;;;;;;;;;;;;0.51;98.44;100867.16;5003625;28;19921;-62
2023/12/04 06:04:43;;;;;;;;;;;;;;;0.51;98.64;100864.56;5000675;28;19913;-63
2023/12/04 06:07:08;;;;;;;;;;;;;;;0.49;98.34;100868.22;5003612;28;20405;-62
2023/12/04 06:09:36;;;;;;;;;;;;;;;0.48;98.59;100861.31;5002315;28;19961;-62
2023/12/04 06:12:07;;;;;;;;;;;;;;;0.48;98.19;100861.31;5003449;28;19921;-62
2023/12/04 06:14:32;;;;;;;;;;;;;;;0.51;98.47;100848.88;5004526;28;19944;-62
2023/12/04 06:16:58;;;;;;;;;;;;;;;0.46;98.15;100850.97;5001808;28;19917;-62
2023/12/04 06:19:23;;;;;;;;;;;;;;;0.54;98.30;100838.22;5003311;28;19924;-62
2023/12/04 06:21:48;;;;;;;;;;;;;;;0.47;97.79;100836.13;4983926;28;20349;-62
2023/12/04 06:24:14;;;;;;;;;;;;;;;0.48;97.75;100824.75;5003389;28;19956;-62
2023/12/04 06:26:41;;;;;;;;;;;;;;;0.53;97.78;100817.41;5001194;28;19944;-62
2023/12/04 06:29:06;;;;;;;;;;;;;;;0.54;97.80;100813.84;5002819;28;19928;-62
2023/12/04 06:31:32;;;;;;;;;;;;;;;0.55;97.52;100797.25;5001477;28;19917;-62
2023/12/04 06:33:57;;;;;;;;;;;;;;;0.56;97.01;100789.28;5002773;28;19979;-62
2023/12/04 06:36:24;;;;;;;;;;;;;;;0.46;97.22;100806.56;5001104;28;19924;-62
2023/12/04 06:38:51;;;;;;;;;;;;;;;0.55;97.05;100799.84;5003167;28;19944;-62
2023/12/04 06:41:18;;;;;;;;;;;;;;;0.57;96.56;100790.97;5002073;28;19952;-62
2023/12/04 06:43:43;;;;;;;;;;;;;;;0.50;96.65;100783.66;5002273;28;20386;-62
2023/12/04 06:46:11;;;;;;;;;;;;;;;0.53;96.53;100789.50;5001895;28;19917;-62
2023/12/04 06:48:36;;;;;;;;;;;;;;;0.57;96.54;100767.44;5001127;28;19948;-62
2023/12/04 06:51:01;;;;;;;;;;;;;;;0.52;96.22;100768.72;5003512;28;20429;-62
2023/12/04 06:53:27;;;;;;;;;;;;;;;0.51;96.50;100777.50;5002887;28;20113;-62
2023/12/04 06:55:52;;;;;;;;;;;;;;;0.54;96.32;100777.28;5006755;28;20486;-62
2023/12/04 06:58:17;;;;;;;;;;;;;;;0.53;96.22;100773.84;5005689;28;19921;-62
2023/12/04 07:00:42;;;;;;;;;;;;;;;0.52;95.96;100780.00;5006162;28;19940;-62
2023/12/04 07:03:08;;;;;;;;;;;;;;;0.48;96.24;100773.31;5005535;28;19917;-62
2023/12/04 07:05:33;;;;;;;;;;;;;;;0.51;95.90;100787.94;5006364;28;19939;-62
2023/12/04 07:07:58;;;;;;;;;;;;;;;0.47;96.13;100786.50;5005330;28;20389;-62
2023/12/04 07:10:23;;;;;;;;;;;;;;;0.50;96.27;100781.88;5006289;28;19917;-62
2023/12/04 07:12:49;;;;;;;;;;;;;;;0.47;95.79;100787.34;5005850;28;19917;-60
2023/12/04 07:15:14;;;;;;;;;;;;;;;0.51;95.95;100778.34;5002784;28;19937;-60
2023/12/04 07:17:40;;;;;;;;;;;;;;;0.54;96.16;100762.44;5001354;28;19914;-60
2023/12/04 07:20:06;;;;;;;;;;;;;;;0.56;96.24;100773.63;5003715;28;19971;-61
2023/12/04 07:22:31;;;;;;;;;;;;;;;0.60;95.94;100762.03;4999628;28;19917;-60
2023/12/04 07:24:56;;;;;;;;;;;;;;;0.46;95.69;100766.53;5000439;28;20436;-60
2023/12/04 07:27:22;;;;;;;;;;;;;;;0.54;95.18;100770.28;5001536;28;19971;-60
2023/12/04 07:29:47;;;;;;;;;;;;;;;0.53;95.30;100779.06;4999084;28;19993;-59
2023/12/04 07:32:12;;;;;;;;;;;;;;;0.59;95.39;100768.19;4998692;28;19921;-62
2023/12/04 07:34:37;;;;;;;;;;;;;;;0.49;95.13;100761.94;5002560;28;19921;-62
2023/12/04 07:37:03;;;;;;;;;;;;;;;0.58;94.79;100760.47;5001717;28;20442;-62
2023/12/04 07:39:28;;;;;;;;;;;;;;;0.61;94.92;100763.69;5002487;28;19917;-62
2023/12/04 07:41:53;;;;;;;;;;;;;;;0.59;94.53;100762.97;5002938;28;21309;-62
2023/12/04 07:44:19;;;;;;;;;;;;;;;0.58;94.56;100763.09;5001709;28;20023;-62
2023/12/04 07:46:44;;;;;;;;;;;;;;;0.59;94.16;100762.97;5000046;28;20377;-62
2023/12/04 07:49:09;;;;;;;;;;;;;;;0.61;94.11;100770.72;5001373;28;19921;-62
2023/12/04 07:51:35;;;;;;;;;;;;;;;0.58;94.10;100771.75;5001656;28;19928;-62
2023/12/04 07:54:00;;;;;;;;;;;;;;;0.61;93.86;100768.94;5005155;28;19913;-62
2023/12/04 07:56:25;;;;;;;;;;;;;;;0.61;93.66;100758.47;5002724;28;19917;-62
2023/12/04 07:58:51;;;;;;;;;;;;;;;0.69;93.26;100754.47;5000941;28;19913;-62
2023/12/04 08:01:16;;;;;;;;;;;;;;;0.62;93.15;100754.09;5000440;28;19914;-62
2023/12/04 08:03:41;;;;;;;;;;;;;;;0.62;92.80;100759.31;5000595;28;19932;-62
2023/12/04 08:06:06;;;;;;;;;;;;;;;0.70;92.35;100741.28;4996948;28;19968;-62
2023/12/04 08:08:32;;;;;;;;;;;;;;;0.69;91.90;100744.03;4999375;28;19982;-62
2023/12/04 08:10:57;;;;;;;;;;;;;;;0.66;91.60;100737.25;4994199;28;19917;-62
2023/12/04 08:13:22;;;;;;;;;;;;;;;0.63;91.68;100734.84;5006609;28;19924;-62
2023/12/04 08:15:47;;;;;;;;;;;;;;;0.64;91.71;100738.28;4997245;28;19944;-62
2023/12/04 08:18:13;;;;;;;;;;;;;;;0.62;91.66;100738.41;5004290;28;19978;-62
2023/12/04 08:20:38;;;;;;;;;;;;;;;0.64;91.84;100746.13;5004799;28;20350;-62
2023/12/04 08:23:03;;;;;;;;;;;;;;;0.59;91.97;100736.00;5004381;28;20378;-62
2023/12/04 08:25:28;;;;;;;;;;;;;;;0.59;91.54;100730.78;5005377;28;19917;-62
2023/12/04 08:27:53;;;;;;;;;;;;;;;0.63;91.78;100734.84;5003478;28;19944;-62
2023/12/04 08:30:19;;;;;;;;;;;;;;;0.64;91.86;100728.69;5001653;28;20483;-62
2023/12/04 08:32:44;;;;;;;;;;;;;;;0.68;91.50;100724.91;4999557;28;20408;-62
2023/12/04 08:35:09;;;;;;;;;;;;;;;0.72;91.48;100713.28;5003121;28;20449;-62
2023/12/04 08:37:35;;;;;;;;;;;;;;;0.69;91.09;100717.88;5003128;28;19917;-62
2023/12/04 08:40:00;;;;;;;;;;;;;;;0.70;91.29;100717.78;5003715;28;19921;-62
2023/12/04 08:42:26;;;;;;;;;;;;;;;0.69;90.95;100708.28;5002834;28;19979;-62
2023/12/04 08:44:51;;;;;;;;;;;;;;;0.68;90.80;100714.44;4998264;28;19918;-62
2023/12/04 08:47:16;;;;;;;;;;;;;;;0.69;90.94;100713.50;5002306;28;19917;-60
2023/12/04 08:49:42;;;;;;;;;;;;;;;0.76;90.96;100706.88;4995686;28;19983;-60
2023/12/04 08:52:07;;;;;;;;;;;;;;;0.74;90.98;100703.53;5004965;28;19921;-60
2023/12/04 08:54:32;;;;;;;;;;;;;;;0.74;90.61;100700.94;4999191;28;20667;-61
2023/12/04 08:56:58;;;;;;;;;;;;;;;0.72;90.54;100692.38;5002480;28;20490;-60
2023/12/04 08:59:23;;;;;;;;;;;;;;;0.78;90.29;100691.06;5000080;28;20498;-60
2023/12/04 09:01:48;;;;;;;;;;;;;;;0.78;90.12;100688.47;5002000;28;19924;-61
2023/12/04 09:04:13;;;;;;;;;;;;;;;0.77;90.15;100685.03;5001451;28;19924;-61
2023/12/04 09:06:39;;;;;;;;;;;;;;;0.82;90.01;100682.91;5002137;28;19917;-61
2023/12/04 09:09:04;;;;;;;;;;;;;;;0.80;89.76;100689.19;4996853;28;20398;-60
2023/12/04 09:11:29;;;;;;;;;;;;;;;0.83;89.83;100676.72;4996744;28;19921;-61
2023/12/04 09:13:54;;;;;;;;;;;;;;;0.88;89.52;100668.56;4997767;28;19924;-61
2023/12/04 09:16:20;;;;;;;;;;;;;;;0.90;89.29;100679.75;4995304;28;19917;-60
2023/12/04 09:18:46;;;;;;;;;;;;;;;0.86;88.94;100680.88;4996748;28;19990;-61
2023/12/04 09:21:11;;;;;;;;;;;;;;;0.86;89.31;100683.50;4996523;28;19940;-60
2023/12/04 09:23:36;;;;;;;;;;;;;;;0.88;88.76;100677.25;4996862;28;20035;-61
2023/12/04 09:26:01;;;;;;;;;;;;;;;0.91;89.14;100682.25;4993801;28;19952;-60
2023/12/04 09:28:27;;;;;;;;;;;;;;;0.91;88.44;100677.03;4998375;28;20012;-60
2023/12/04 09:30:52;;;;;;;;;;;;;;;0.89;88.64;100678.09;4996019;28;19914;-60
2023/12/04 09:33:17;;;;;;;;;;;;;;;0.88;88.85;100679.88;4998934;28;19913;-60
2023/12/04 09:35:42;;;;;;;;;;;;;;;0.97;88.29;100687.97;4998086;28;20353;-60
2023/12/04 09:38:07;;;;;;;;;;;;;;;1.00;88.00;100674.66;4999470;28;20003;-61
2023/12/04 09:40:33;;;;;;;;;;;;;;;0.98;88.37;100681.78;4994276;28;19917;-60
2023/12/04 09:42:58;;;;;;;;;;;;;;;0.97;88.22;100680.97;4997467;28;19917;-60
2023/12/04 09:45:24;;;;;;;;;;;;;;;0.96;88.41;100684.53;4999366;28;19952;-61
2023/12/04 09:47:49;;;;;;;;;;;;;;;0.99;88.58;100681.69;4996784;28;19917;-61
2023/12/04 09:50:15;;;;;;;;;;;;;;;1.07;88.08;100686.31;4997461;28;19967;-60
2023/12/04 09:52:41;;;;;;;;;;;;;;;1.03;88.11;100677.88;4998619;28;20302;-60
2023/12/04 09:55:06;;;;;;;;;;;;;;;1.07;88.51;100673.25;4991937;28;19918;-60
2023/12/04 09:57:32;;;;;;;;;;;;;;;1.06;87.91;100668.97;4994386;28;19992;-60
2023/12/04 10:00:00;;;;;;;;;;;;;;;1.13;88.03;100672.78;4992794;28;19996;-59
2023/12/04 10:02:25;;;;;;;;;;;;;;;1.07;87.88;100668.84;4992683;28;20342;-61
2023/12/04 10:04:51;;;;;;;;;;;;;;;1.13;87.88;100672.78;4989827;28;19960;-60
2023/12/04 10:07:17;;;;;;;;;;;;;;;1.14;87.78;100666.63;4996496;28;20704;-60
2023/12/04 10:09:42;;;;;;;;;;;;;;;1.16;87.47;100657.75;4993627;28;19932;-60
2023/12/04 10:12:07;;;;;;;;;;;;;;;1.17;87.40;100653.34;4995380;28;19965;-60
2023/12/04 10:14:33;;;;;;;;;;;;;;;1.17;87.20;100653.34;4993659;28;19935;-60
2023/12/04 10:16:59;;;;;;;;;;;;;;;1.19;87.17;100654.06;4991388;28;19924;-60
2023/12/04 10:19:26;;;;;;;;;;;;;;;1.20;86.73;100647.88;4996185;28;20391;-60
2023/12/04 10:21:51;;;;;;;;;;;;;;;1.20;86.71;100645.25;4996076;28;19924;-59
2023/12/04 10:24:35;;;;;;;;;;;;;;;1.15;86.81;100649.97;4991765;28;19917;-60
2023/12/04 10:27:00;;;;;;;;;;;;;;;1.18;86.87;100636.69;4991077;28;19922;-60
2023/12/04 10:29:32;;;;;;;;;;;;;;;1.18;87.15;100636.69;4995901;28;20015;-60
2023/12/04 10:32:00;;;;;;;;;;;;;;;1.25;87.00;100616.97;4992589;28;19947;-60
2023/12/04 10:34:26;;;;;;;;;;;;;;;1.20;86.54;100603.41;4993827;28;19922;-60
2023/12/04 10:36:51;;;;;;;;;;;;;;;1.28;86.96;100608.88;4997672;28;19925;-60
2023/12/04 10:39:17;;;;;;;;;;;;;;;1.30;86.78;100606.97;4992947;28;20003;-60
2023/12/04 10:41:43;;;;;;;;;;;;;;;1.30;86.59;100598.31;4990143;28;19960;-60
2023/12/04 10:44:08;;;;;;;;;;;;;;;1.39;86.62;100590.56;4991252;28;20689;-60
2023/12/04 10:46:35;;;;;;;;;;;;;;;1.39;86.43;100587.97;4990852;28;19917;-60
2023/12/04 10:49:02;;;;;;;;;;;;;;;1.38;86.07;100586.28;4990304;28;19918;-61
2023/12/04 10:51:28;;;;;;;;;;;;;;;1.37;86.22;100573.34;4992694;28;19944;-60
2023/12/04 10:53:53;;;;;;;;;;;;;;;1.36;85.96;100585.59;4996237;28;19979;-61
2023/12/04 10:56:34;;;;;;;;;;;;;;;1.40;86.40;100568.69;4989429;28;19917;-60
2023/12/04 10:59:01;;;;;;;;;;;;;;;1.54;85.81;100571.09;4990833;28;20076;-61
2023/12/04 11:01:27;;;;;;;;;;;;;;;1.46;86.09;100563.00;4991940;28;19921;-60
2023/12/04 11:03:55;;;;;;;;;;;;;;;1.50;85.63;100556.59;4991282;28;20414;-60
2023/12/04 11:06:21;;;;;;;;;;;;;;;1.53;85.43;100556.34;4993113;28;19918;-61
2023/12/04 11:08:48;;;;;;;;;;;;;;;1.49;85.36;100551.47;4990675;28;19921;-60
2023/12/04 11:11:16;;;;;;;;;;;;;;;1.52;85.94;100543.38;4989001;28;19925;-60
2023/12/04 11:13:42;;;;;;;;;;;;;;;1.53;85.65;100547.66;4991840;28;19994;-60
2023/12/04 11:16:27;;;;;;;;;;;;;;;1.62;85.43;100541.69;4993182;28;19928;-60
2023/12/04 11:18:56;;;;;;;;;;;;;;;1.58;85.54;100534.22;4992201;28;19952;-60
2023/12/04 11:21:23;;;;;;;;;;;;;;;1.60;85.52;100537.53;4995298;28;20032;-60
2023/12/04 11:23:49;;;;;;;;;;;;;;;1.66;85.42;100532.66;4993547;28;19960;-61
2023/12/04 11:26:15;;;;;;;;;;;;;;;1.69;85.02;100528.94;4993808;28;20777;-61
2023/12/04 11:28:40;;;;;;;;;;;;;;;1.67;85.09;100528.25;4993679;28;19936;-61
2023/12/04 11:31:06;;;;;;;;;;;;;;;1.70;85.15;100530.63;4990378;28;19921;-62
2023/12/04 11:33:37;;;;;;;;;;;;;;;1.70;85.29;100533.22;4991303;28;20644;-61
2023/12/04 11:36:09;;;;;;;;;;;;;;;1.74;85.37;100532.91;4990450;28;19964;-61
2023/12/04 11:38:36;;;;;;;;;;;;;;;1.72;85.23;100520.84;4992090;28;19917;-61
2023/12/04 11:41:11;;;;;;;;;;;;;;;1.72;85.40;100523.47;4994017;28;19948;-61
2023/12/04 11:43:36;;;;;;;;;;;;;;;1.73;85.58;100525.13;4992294;28;20776;-61
2023/12/04 11:46:09;;;;;;;;;;;;;;;1.84;85.73;100509.44;4996041;28;19921;-61
2023/12/04 11:48:34;;;;;;;;;;;;;;;1.82;85.14;100506.09;4999944;28;19971;-61
2023/12/04 11:51:00;;;;;;;;;;;;;;;1.78;85.45;100507.31;4995311;28;20000;-61
2023/12/04 11:53:25;;;;;;;;;;;;;;;1.84;85.40;100499.78;4999532;28;19914;-61
2023/12/04 11:55:54;;;;;;;;;;;;;;;1.85;85.16;100498.00;4996024;28;19921;-61
2023/12/04 11:58:21;;;;;;;;;;;;;;;1.83;85.25;100494.66;5001103;28;19996;-61
2023/12/04 12:00:46;;;;;;;;;;;;;;;1.83;85.03;100494.66;4993091;28;19921;-60
2023/12/04 12:03:14;;;;;;;;;;;;;;;1.79;85.38;100490.63;4990191;28;19939;-61
2023/12/04 12:05:40;;;;;;;;;;;;;;;1.85;85.32;100479.66;4991978;28;19924;-61
2023/12/04 12:08:06;;;;;;;;;;;;;;;1.85;85.55;100472.66;4994569;28;19913;-61
2023/12/04 12:10:32;;;;;;;;;;;;;;;1.83;85.26;100465.88;4997782;28;19931;-61
2023/12/04 12:12:57;;;;;;;;;;;;;;;1.81;85.51;100450.28;4996371;28;19918;-61
2023/12/04 12:15:23;;;;;;;;;;;;;;;1.79;85.79;100454.81;5000215;28;19918;-61
2023/12/04 12:17:49;;;;;;;;;;;;;;;1.78;85.80;100441.84;4995273;28;20374;-61
2023/12/04 12:20:14;;;;;;;;;;;;;;;1.70;86.08;100431.97;4997649;28;19917;-61
2023/12/04 12:22:46;;;;;;;;;;;;;;;1.71;86.47;100436.25;5002582;28;20397;-61
2023/12/04 12:25:11;;;;;;;;;;;;;;;1.74;86.61;100435.22;4998366;28;20333;-61
2023/12/04 12:27:37;;;;;;;;;;;;;;;1.74;86.31;100432.59;4999118;28;19917;-61
2023/12/04 12:30:04;;;;;;;;;;;;;;;1.79;86.71;100430.44;5001736;28;19987;-61
2023/12/04 12:32:30;;;;;;;;;;;;;;;1.77;86.59;100417.47;4999639;28;20334;-61
2023/12/04 12:34:56;;;;;;;;;;;;;;;1.73;86.94;100407.34;5001845;28;19925;-61